createdAt,value
2018-09-13T00:01:37.758Z,35.46
2018-09-13T00:04:12.971Z,34.97
2018-09-13T00:06:48.591Z,35.48
2018-09-13T00:09:24.137Z,36.00
2018-09-13T00:11:59.757Z,34.79
2018-09-13T00:14:35.147Z,34.73
2018-09-13T00:17:10.783Z,35.28
2018-09-13T00:19:46.273Z,34.67
2018-09-13T00:22:21.588Z,35.10
2018-09-13T00:24:57.184Z,34.60
2018-09-13T00:27:33.761Z,35.54
2018-09-13T00:30:09.562Z,35.80
2018-09-13T00:32:45.179Z,35.08
2018-09-13T00:35:20.501Z,35.87
2018-09-13T00:37:56.571Z,35.41
2018-09-13T00:40:32.594Z,35.20
2018-09-13T00:43:08.570Z,35.61
2018-09-13T00:45:44.006Z,34.52
2018-09-13T00:48:19.566Z,35.17
2018-09-13T00:50:54.874Z,35.28
2018-09-13T00:53:31.351Z,35.85
2018-09-13T00:56:06.968Z,35.35
2018-09-13T00:58:42.599Z,35.12
2018-09-13T01:01:19.221Z,35.12
2018-09-13T01:03:54.961Z,34.80
2018-09-13T01:06:30.489Z,35.55
2018-09-13T01:09:05.821Z,35.14
2018-09-13T01:11:41.230Z,35.71
2018-09-13T01:14:16.839Z,34.99
2018-09-13T01:16:53.314Z,34.62
2018-09-13T01:19:28.950Z,34.99
2018-09-13T01:22:04.379Z,34.38
2018-09-13T01:24:39.941Z,35.61
2018-09-13T01:27:15.591Z,35.66
2018-09-13T01:29:50.799Z,34.77
2018-09-13T01:32:27.454Z,35.08
2018-09-13T01:35:03.795Z,34.85
2018-09-13T01:37:39.638Z,34.39
2018-09-13T01:40:14.966Z,35.22
2018-09-13T01:42:50.741Z,34.92
2018-09-13T01:45:26.578Z,34.90
2018-09-13T01:48:02.202Z,35.63
2018-09-13T01:50:37.778Z,34.51
2018-09-13T01:53:13.361Z,34.67
2018-09-13T01:55:48.794Z,34.73
2018-09-13T01:58:24.058Z,35.15
2018-09-13T02:00:59.413Z,35.67
2018-09-13T02:03:34.793Z,35.21
2018-09-13T02:06:10.369Z,34.74
2018-09-13T02:08:45.958Z,34.86
2018-09-13T02:11:22.038Z,34.76
2018-09-13T02:13:58.400Z,34.88
2018-09-13T02:16:34.620Z,34.60
2018-09-13T02:19:09.964Z,35.10
2018-09-13T02:21:45.279Z,34.50
2018-09-13T02:24:20.982Z,34.78
2018-09-13T02:26:56.524Z,34.38
2018-09-13T02:29:32.632Z,35.05
2018-09-13T02:32:08.621Z,34.76
2018-09-13T02:34:44.002Z,35.31
2018-09-13T02:37:19.764Z,35.32
2018-09-13T02:39:55.870Z,35.20
2018-09-13T02:42:32.390Z,36.00
2018-09-13T02:45:08.642Z,35.37
2018-09-13T02:47:44.758Z,34.77
2018-09-13T02:50:20.643Z,35.37
2018-09-13T02:52:56.544Z,34.88
2018-09-13T02:55:32.767Z,34.83
2018-09-13T02:58:09.466Z,34.92
2018-09-13T03:00:45.867Z,35.52
2018-09-13T03:03:21.813Z,36.16
2018-09-13T03:05:57.641Z,36.14
2018-09-13T03:08:33.649Z,35.58
2018-09-13T03:11:09.488Z,36.25
2018-09-13T03:13:45.670Z,35.51
2018-09-13T03:16:21.649Z,35.38
2018-09-13T03:18:58.461Z,35.97
2018-09-13T03:21:35.307Z,35.43
2018-09-13T03:24:11.416Z,36.27
2018-09-13T03:26:48.683Z,35.38
2018-09-13T03:29:24.967Z,35.54
2018-09-13T03:32:01.312Z,36.13
2018-09-13T03:34:37.561Z,35.77
2018-09-13T03:37:14.774Z,35.85
2018-09-13T03:39:50.654Z,36.45
2018-09-13T03:42:26.656Z,35.25
2018-09-13T03:45:02.823Z,35.81
2018-09-13T03:47:39.264Z,35.76
2018-09-13T03:50:15.006Z,35.52
2018-09-13T03:52:51.653Z,35.63
2018-09-13T03:55:27.860Z,35.88
2018-09-13T03:58:03.849Z,35.54
2018-09-13T04:00:39.840Z,36.56
2018-09-13T04:03:17.100Z,35.14
2018-09-13T04:05:53.665Z,36.53
2018-09-13T04:08:30.122Z,36.35
2018-09-13T04:11:06.841Z,36.44
2018-09-13T04:13:43.238Z,37.13
2018-09-13T04:16:19.489Z,37.06
2018-09-13T04:18:55.592Z,37.40
2018-09-13T04:21:31.597Z,36.25
2018-09-13T04:24:07.641Z,36.71
2018-09-13T04:26:44.050Z,37.19
2018-09-13T04:29:20.515Z,37.26
2018-09-13T04:31:56.673Z,37.08
2018-09-13T04:34:32.675Z,37.50
2018-09-13T04:37:10.394Z,37.42
2018-09-13T04:39:46.447Z,37.59
2018-09-13T04:42:22.808Z,37.86
2018-09-13T04:44:59.873Z,38.72
2018-09-13T04:47:35.897Z,38.45
2018-09-13T04:50:12.370Z,37.64
2018-09-13T04:52:48.331Z,37.93
2018-09-13T04:55:24.504Z,38.59
2018-09-13T04:58:00.682Z,38.80
2018-09-13T05:00:36.682Z,39.50
2018-09-13T05:03:12.868Z,38.79
2018-09-13T05:05:48.688Z,38.70
2018-09-13T05:08:25.107Z,38.97
2018-09-13T05:11:01.813Z,39.27
2018-09-13T05:13:37.854Z,39.32
2018-09-13T05:16:16.874Z,39.84
2018-09-13T05:18:53.414Z,40.22
2018-09-13T05:21:30.442Z,39.93
2018-09-13T05:24:06.605Z,40.49
2018-09-13T05:26:42.877Z,40.62
2018-09-13T05:29:18.695Z,40.36
2018-09-13T05:31:54.968Z,40.76
2018-09-13T05:34:31.387Z,40.70
2018-09-13T05:37:07.321Z,40.45
2018-09-13T05:39:43.407Z,40.56
2018-09-13T05:42:19.645Z,39.97
2018-09-13T05:44:55.714Z,41.03
2018-09-13T05:47:31.705Z,40.91
2018-09-13T05:50:07.673Z,41.22
2018-09-13T05:52:43.646Z,40.59
2018-09-13T05:55:21.877Z,41.25
2018-09-13T05:57:58.063Z,41.29
2018-09-13T06:00:34.574Z,41.40
2018-09-13T06:03:11.342Z,41.75
2018-09-13T06:05:47.500Z,42.03
2018-09-13T06:08:23.706Z,41.41
2018-09-13T06:10:59.889Z,41.50
2018-09-13T06:13:35.931Z,42.34
2018-09-13T06:16:12.425Z,41.51
2018-09-13T06:18:48.334Z,41.67
2018-09-13T06:21:24.669Z,41.79
2018-09-13T06:24:00.987Z,42.02
2018-09-13T06:26:37.002Z,42.62
2018-09-13T06:29:12.894Z,42.18
2018-09-13T06:31:48.712Z,41.86
2018-09-13T06:34:24.745Z,41.77
2018-09-13T06:37:00.715Z,42.98
2018-09-13T06:39:36.727Z,42.59
2018-09-13T06:42:12.731Z,42.87
2018-09-13T06:44:48.947Z,42.50
2018-09-13T06:47:25.127Z,43.12
2018-09-13T06:50:00.901Z,42.56
2018-09-13T06:52:37.653Z,41.93
2018-09-13T06:55:13.929Z,42.75
2018-09-13T06:57:50.938Z,42.81
2018-09-13T07:00:27.489Z,43.36
2018-09-13T07:03:03.764Z,42.55
2018-09-13T07:05:39.729Z,43.08
2018-09-13T07:08:15.726Z,42.47
2018-09-13T07:10:52.070Z,43.21
2018-09-13T07:13:28.346Z,42.51
2018-09-13T07:16:04.168Z,43.75
2018-09-13T07:18:40.232Z,43.77
2018-09-13T07:21:16.355Z,43.70
2018-09-13T07:23:52.482Z,42.75
2018-09-13T07:26:30.641Z,43.04
2018-09-13T07:29:06.784Z,43.40
2018-09-13T07:31:43.549Z,41.97
2018-09-13T07:34:19.670Z,43.00
2018-09-13T07:36:55.744Z,41.95
2018-09-13T07:39:32.070Z,41.83
2018-09-13T07:42:08.737Z,42.01
2018-09-13T07:44:45.126Z,40.82
2018-09-13T07:47:21.397Z,41.26
2018-09-13T07:49:57.770Z,40.91
2018-09-13T07:52:33.721Z,41.45
2018-09-13T07:55:09.645Z,41.21
2018-09-13T07:57:45.812Z,41.28
2018-09-13T08:00:21.745Z,40.60
2018-09-13T08:02:57.585Z,40.02
2018-09-13T08:05:33.678Z,40.40
2018-09-13T08:08:09.753Z,40.61
2018-09-13T08:10:45.750Z,40.12
2018-09-13T08:13:21.923Z,39.79
2018-09-13T08:15:58.556Z,40.07
2018-09-13T08:18:34.381Z,40.02
2018-09-13T08:21:10.611Z,39.66
2018-09-13T08:23:46.441Z,39.29
2018-09-13T08:26:22.760Z,39.55
2018-09-13T08:28:58.755Z,39.88
2018-09-13T08:31:34.924Z,39.53
2018-09-13T08:34:11.666Z,39.55
2018-09-13T08:36:47.611Z,39.63
2018-09-13T08:39:23.750Z,39.54
2018-09-13T08:41:59.745Z,38.76
2018-09-13T08:44:35.767Z,38.69
2018-09-13T08:47:11.762Z,38.98
2018-09-13T08:49:47.745Z,38.31
2018-09-13T08:52:23.753Z,38.91
2018-09-13T08:55:00.011Z,38.68
2018-09-13T08:57:35.941Z,38.92
2018-09-13T09:00:15.892Z,38.63
2018-09-13T09:02:51.607Z,38.90
2018-09-13T09:05:27.453Z,38.05
2018-09-13T09:08:03.422Z,37.95
2018-09-13T09:10:39.170Z,38.26
2018-09-13T09:13:15.609Z,38.06
2018-09-13T09:15:51.570Z,38.33
2018-09-13T09:18:27.612Z,37.77
2018-09-13T09:21:03.773Z,37.21
2018-09-13T09:23:39.754Z,37.21
2018-09-13T09:26:15.941Z,37.72
2018-09-13T09:28:52.163Z,38.36
2018-09-13T09:31:28.171Z,37.47
2018-09-13T09:34:04.419Z,37.56
2018-09-13T09:36:40.526Z,37.98
2018-09-13T09:39:17.429Z,37.47
2018-09-13T09:41:53.596Z,37.75
2018-09-13T09:44:29.582Z,37.59
2018-09-13T09:47:05.559Z,37.38
2018-09-13T09:49:39.680Z,36.70
2018-09-13T09:52:15.802Z,36.89
2018-09-13T09:54:51.603Z,37.24
2018-09-13T09:57:27.610Z,36.85
2018-09-13T10:00:03.765Z,37.14
2018-09-13T10:02:39.794Z,36.49
2018-09-13T10:05:15.909Z,36.56
2018-09-13T10:07:51.802Z,37.25
2018-09-13T10:10:27.963Z,36.39
2018-09-13T10:13:04.151Z,37.71
2018-09-13T10:15:44.184Z,37.44
2018-09-13T10:18:24.363Z,36.78
2018-09-13T10:21:04.770Z,36.84
2018-09-13T10:23:45.034Z,36.47
2018-09-13T10:26:25.109Z,37.11
2018-09-13T10:29:05.537Z,36.57
2018-09-13T10:31:43.533Z,36.19
2018-09-13T10:34:23.777Z,36.78
2018-09-13T10:37:03.781Z,36.71
2018-09-13T10:39:43.703Z,36.77
2018-09-13T10:42:23.546Z,37.04
2018-09-13T10:45:03.973Z,36.58
2018-09-13T10:47:43.966Z,36.34
2018-09-13T10:50:23.995Z,36.92
2018-09-13T10:53:13.313Z,36.60
2018-09-13T10:55:49.860Z,37.15
2018-09-13T10:58:25.756Z,36.56
2018-09-13T11:01:02.145Z,36.18
2018-09-13T11:03:37.966Z,36.58
2018-09-13T11:06:13.969Z,36.33
2018-09-13T11:08:49.934Z,36.40
2018-09-13T11:11:25.947Z,35.84
2018-09-13T11:14:06.143Z,36.04
2018-09-13T11:16:42.482Z,36.97
2018-09-13T11:19:18.645Z,36.04
2018-09-13T11:21:54.635Z,35.70
2018-09-13T11:24:30.812Z,36.63
2018-09-13T11:27:06.805Z,36.24
2018-09-13T11:29:43.304Z,36.61
2018-09-13T11:32:18.987Z,36.82
2018-09-13T11:34:55.601Z,36.16
2018-09-13T11:37:31.729Z,35.67
2018-09-13T11:40:07.741Z,36.77
2018-09-13T11:42:44.797Z,36.06
2018-09-13T11:45:20.941Z,35.41
2018-09-13T11:47:56.813Z,36.71
2018-09-13T11:50:32.827Z,35.66
2018-09-13T11:53:08.863Z,36.34
2018-09-13T11:55:45.374Z,36.45
2018-09-13T11:58:21.488Z,36.80
2018-09-13T12:00:57.413Z,36.00
2018-09-13T12:06:19.105Z,36.58
2018-09-13T12:08:55.118Z,35.29
2018-09-13T12:11:31.513Z,36.54
2018-09-13T12:14:07.497Z,35.77
2018-09-13T12:16:44.797Z,35.89
2018-09-13T12:20:50.721Z,36.13
2018-09-13T12:23:27.005Z,36.25
2018-09-13T12:26:03.133Z,36.20
2018-09-13T12:28:38.955Z,36.35
2018-09-13T12:31:15.585Z,35.89
2018-09-13T12:33:51.682Z,35.16
2018-09-13T12:36:27.862Z,35.57
2018-09-13T12:39:03.527Z,35.90
2018-09-13T12:41:39.666Z,35.34
2018-09-13T12:44:15.574Z,36.32
2018-09-13T12:46:51.812Z,35.00
2018-09-13T12:49:27.838Z,35.73
2018-09-13T12:52:03.846Z,35.18
2018-09-13T12:54:39.673Z,35.80
2018-09-13T12:57:16.045Z,35.84
2018-09-13T12:59:52.569Z,35.49
2018-09-13T13:02:28.838Z,35.41
2018-09-13T13:05:04.968Z,35.50
2018-09-13T13:07:41.017Z,36.05
2018-09-13T13:10:16.969Z,36.38
2018-09-13T13:12:53.071Z,35.12
2018-09-13T13:15:29.019Z,35.83
2018-09-13T13:18:05.061Z,36.11
2018-09-13T13:20:41.045Z,36.25
2018-09-13T13:23:16.577Z,35.69
2018-09-13T13:25:52.753Z,36.48
2018-09-13T13:28:29.290Z,35.50
2018-09-13T13:31:05.206Z,35.28
2018-09-13T13:33:41.188Z,36.42
2018-09-13T13:36:17.061Z,35.46
2018-09-13T13:38:53.034Z,35.60
2018-09-13T13:41:29.029Z,35.72
2018-09-13T13:44:05.092Z,36.04
2018-09-13T13:46:41.645Z,35.68
2018-09-13T13:49:17.672Z,35.31
2018-09-13T13:51:53.861Z,35.26
2018-09-13T13:54:30.039Z,35.30
2018-09-13T13:57:06.038Z,35.85
2018-09-13T13:59:42.085Z,35.52
2018-09-13T14:02:18.033Z,35.83
2018-09-13T14:04:54.593Z,36.36
2018-09-13T14:07:30.862Z,35.45
2018-09-13T14:10:06.919Z,35.83
2018-09-13T14:12:43.233Z,36.51
2018-09-13T14:15:19.581Z,35.53
2018-09-13T14:17:55.804Z,35.32
2018-09-13T14:20:33.120Z,36.50
2018-09-13T14:23:09.677Z,36.12
2018-09-13T14:25:45.634Z,35.19
2018-09-13T14:28:21.718Z,35.88
2018-09-13T14:30:57.526Z,35.78
2018-09-13T14:33:33.247Z,35.96
2018-09-13T14:36:09.237Z,35.81
2018-09-13T14:38:45.630Z,35.49
2018-09-13T14:41:22.231Z,36.15
2018-09-13T14:43:58.634Z,35.98
2018-09-13T14:46:35.210Z,35.40
2018-09-13T14:49:11.496Z,36.37
2018-09-13T14:51:47.877Z,36.18
2018-09-13T14:54:24.229Z,35.17
2018-09-13T14:57:00.268Z,36.22
2018-09-13T14:59:36.310Z,35.65
2018-09-13T15:02:12.781Z,35.57
2018-09-13T15:04:49.057Z,35.30
2018-09-13T15:07:25.150Z,36.13
2018-09-13T15:10:01.583Z,35.84
2018-09-13T15:12:37.565Z,35.56
2018-09-13T15:15:13.822Z,36.01
2018-09-13T15:17:49.882Z,35.04
2018-09-13T15:20:25.805Z,35.60
2018-09-13T15:23:02.281Z,36.05
2018-09-13T15:25:37.913Z,35.60
2018-09-13T15:28:13.810Z,36.21
2018-09-13T15:30:49.716Z,35.80
2018-09-13T15:33:25.745Z,35.26
2018-09-13T15:36:01.710Z,36.21
2018-09-13T15:38:37.760Z,35.86
2018-09-13T15:41:13.809Z,35.64
2018-09-13T15:43:49.874Z,35.51
2018-09-13T15:46:26.061Z,35.89
2018-09-13T15:49:01.839Z,34.37
2018-09-13T15:51:37.815Z,35.08
2018-09-13T15:54:13.729Z,35.28
2018-09-13T15:56:49.825Z,35.47
2018-09-13T15:59:26.062Z,34.90
2018-09-13T16:02:02.228Z,36.36
2018-09-13T16:04:38.049Z,35.79
2018-09-13T16:07:13.889Z,34.95
2018-09-13T16:09:50.251Z,35.47
2018-09-13T16:12:26.946Z,35.53
2018-09-13T16:15:03.030Z,36.26
2018-09-13T16:17:39.694Z,35.67
2018-09-13T16:20:15.701Z,36.46
2018-09-13T16:22:51.702Z,35.05
2018-09-13T16:25:28.119Z,35.61
2018-09-13T16:28:03.952Z,35.50
2018-09-13T16:30:39.904Z,35.65
2018-09-13T16:33:15.770Z,35.21
2018-09-13T16:35:56.373Z,35.53
2018-09-13T16:38:36.448Z,36.09
2018-09-13T16:41:16.093Z,35.13
2018-09-13T16:43:55.689Z,36.08
2018-09-13T16:46:36.108Z,35.86
2018-09-13T16:49:11.911Z,34.89
2018-09-13T16:51:47.885Z,35.82
2018-09-13T16:54:24.088Z,35.62
2018-09-13T16:57:00.269Z,35.79
2018-09-13T16:59:36.088Z,35.79
2018-09-13T17:02:12.111Z,36.39
2018-09-13T17:07:22.086Z,35.96
2018-09-13T17:09:58.098Z,35.41
2018-09-13T17:12:34.091Z,36.41
2018-09-13T17:15:10.561Z,35.32
2018-09-13T17:17:46.770Z,36.23
2018-09-13T17:20:23.110Z,34.99
2018-09-13T17:22:59.274Z,34.98
2018-09-13T17:25:35.102Z,35.51
2018-09-13T17:28:11.102Z,34.83
2018-09-13T17:30:47.161Z,36.16
2018-09-13T17:33:23.046Z,34.73
2018-09-13T17:35:58.682Z,35.81
2018-09-13T17:38:34.282Z,35.64
2018-09-13T17:41:10.516Z,34.88
2018-09-13T17:43:46.685Z,36.76
2018-09-13T17:46:23.027Z,35.41
2018-09-13T17:48:58.729Z,35.98
2018-09-13T17:51:34.677Z,34.95
2018-09-13T17:54:10.675Z,35.24
2018-09-13T17:56:46.682Z,35.24
2018-09-13T17:59:22.730Z,35.95
2018-09-13T18:01:58.674Z,34.93
2018-09-13T18:04:34.673Z,35.90
2018-09-13T18:07:10.837Z,35.31
2018-09-13T18:09:46.681Z,35.04
2018-09-13T18:12:22.603Z,35.62
2018-09-13T18:14:58.683Z,35.35
2018-09-13T18:17:34.674Z,35.77
2018-09-13T18:20:10.915Z,34.45
2018-09-13T18:22:47.110Z,34.63
2018-09-13T18:25:23.117Z,34.81
2018-09-13T18:27:59.121Z,35.41
2018-09-13T18:30:35.114Z,35.08
2018-09-13T18:33:11.133Z,35.55
2018-09-13T18:35:47.746Z,35.69
2018-09-13T18:38:23.931Z,35.31
2018-09-13T18:41:00.122Z,34.22
2018-09-13T18:43:36.294Z,34.67
2018-09-13T18:46:12.761Z,34.99
2018-09-13T18:48:48.951Z,35.78
2018-09-13T18:51:24.946Z,35.33
2018-09-13T18:54:00.966Z,34.80
2018-09-13T18:56:37.439Z,34.58
2018-09-13T18:59:13.362Z,35.50
2018-09-13T19:01:49.306Z,34.78
2018-09-13T19:04:25.704Z,34.80
2018-09-13T19:07:01.893Z,34.93
2018-09-13T19:09:37.913Z,35.34
2018-09-13T19:12:14.958Z,34.91
2018-09-13T19:14:51.534Z,34.82
2018-09-13T19:17:27.925Z,34.44
2018-09-13T19:20:04.133Z,35.65
2018-09-13T19:22:40.126Z,35.26
2018-09-13T19:25:15.955Z,35.10
2018-09-13T19:27:52.647Z,35.50
2018-09-13T19:30:28.989Z,34.51
2018-09-13T19:33:04.732Z,34.88
2018-09-13T19:35:40.965Z,34.80
2018-09-13T19:38:17.794Z,34.86
2018-09-13T19:40:53.958Z,34.98
2018-09-13T19:43:30.133Z,34.54
2018-09-13T19:46:06.312Z,35.48
2018-09-13T19:48:42.611Z,34.47
2018-09-13T19:51:18.801Z,34.12
2018-09-13T19:53:55.456Z,34.32
2018-09-13T19:56:31.897Z,35.39
2018-09-13T19:59:08.529Z,34.37
2018-09-13T20:01:44.313Z,35.07
2018-09-13T20:04:20.349Z,35.11
2018-09-13T20:06:56.956Z,34.04
2018-09-13T20:09:32.875Z,34.44
2018-09-13T20:12:08.904Z,34.01
2018-09-13T20:14:45.093Z,35.09
2018-09-13T20:17:20.872Z,34.05
2018-09-13T20:19:57.214Z,34.25
2018-09-13T20:29:30.873Z,33.87
2018-09-13T20:32:06.965Z,33.97
2018-09-13T20:34:42.876Z,35.33
2018-09-13T20:37:18.978Z,35.05
2018-09-13T20:39:54.966Z,35.30
2018-09-13T20:42:30.786Z,35.37
2018-09-13T20:45:06.951Z,34.18
2018-09-13T20:47:42.976Z,35.39
2018-09-13T20:50:19.159Z,34.44
2018-09-13T20:52:54.950Z,34.11
2018-09-13T20:55:30.982Z,34.81
2018-09-13T20:58:06.966Z,35.07
2018-09-13T21:00:44.000Z,34.18
2018-09-13T21:03:20.566Z,34.76
2018-09-13T21:05:56.217Z,34.76
2018-09-13T21:08:32.367Z,34.65
2018-09-13T21:11:08.177Z,34.86
2018-09-13T21:13:43.928Z,34.46
2018-09-13T21:16:20.905Z,34.95
2018-09-13T21:18:56.908Z,35.54
2018-09-13T21:21:33.185Z,34.96
2018-09-13T21:24:09.103Z,34.26
2018-09-13T21:26:45.193Z,34.73
2018-09-13T21:29:20.986Z,35.60
2018-09-13T21:31:57.170Z,35.15
2018-09-13T21:34:33.899Z,34.62
2018-09-13T21:37:11.001Z,34.54
2018-09-13T21:39:46.720Z,34.50
2018-09-13T21:42:22.730Z,35.53
2018-09-13T21:44:58.777Z,35.21
2018-09-13T21:47:35.126Z,35.62
2018-09-13T21:50:11.178Z,34.91
2018-09-13T21:52:47.178Z,34.82
2018-09-13T21:55:23.178Z,34.68
2018-09-13T21:57:59.208Z,34.99
2018-09-13T22:00:36.188Z,34.84
2018-09-13T22:03:12.193Z,34.93
2018-09-13T22:05:48.005Z,35.26
2018-09-13T22:08:24.008Z,35.03
2018-09-13T22:11:00.181Z,35.56
2018-09-13T22:13:36.237Z,35.03
2018-09-13T22:16:12.669Z,35.36
2018-09-13T22:18:48.864Z,35.33
2018-09-13T22:21:25.505Z,35.27
2018-09-13T22:24:01.844Z,34.94
2018-09-13T22:26:38.245Z,35.05
2018-09-13T22:29:14.232Z,34.38
2018-09-13T22:31:50.404Z,34.96
2018-09-13T22:34:26.610Z,35.07
2018-09-13T22:37:03.606Z,35.02
2018-09-13T22:39:39.765Z,35.16
2018-09-13T22:42:15.816Z,35.23
2018-09-13T22:44:52.193Z,34.95
2018-09-13T22:47:29.201Z,35.69
2018-09-13T22:50:05.193Z,35.34
2018-09-13T22:52:41.023Z,35.70
2018-09-13T22:55:17.364Z,35.04
2018-09-13T22:57:53.389Z,34.42
2018-09-13T23:00:29.244Z,35.45
2018-09-13T23:03:05.799Z,35.19
2018-09-13T23:05:42.022Z,35.36
2018-09-13T23:08:18.930Z,35.58
2018-09-13T23:10:54.903Z,34.64
2018-09-13T23:13:30.835Z,35.04
2018-09-13T23:16:06.709Z,34.82
2018-09-13T23:18:42.868Z,35.69
2018-09-13T23:21:19.001Z,35.07
2018-09-13T23:23:56.068Z,35.42
2018-09-13T23:26:32.002Z,34.90
2018-09-13T23:29:07.837Z,34.66
2018-09-13T23:31:43.889Z,34.48
2018-09-13T23:34:20.407Z,35.24
2018-09-13T23:36:56.385Z,34.76
2018-09-13T23:39:32.608Z,34.55
2018-09-13T23:42:08.937Z,35.38
2018-09-13T23:44:45.162Z,34.96
2018-09-13T23:47:22.039Z,35.15
2018-09-13T23:49:58.212Z,34.79
2018-09-13T23:52:34.042Z,34.88
2018-09-13T23:55:09.733Z,35.17
2018-09-13T23:57:45.694Z,35.07
